KOZR/OZR METAR and TAF weather

Enter ICAO airport designator
Station Type Date Time Source
KOZR METAR 2019/02/20 17:56 UTC NOAA

KOZR 201756Z AUTO 13008KT 10SM OVC006 17/15 A3003 RMK AO2 SLP171 T01730149 10173 20104 57019


Station Type Date Time Source
KOZR Decoded METAR 2019/02/20 17:56 UTC NOAA

Cairns Army Air Field / Ozark, AL, United States (KOZR) 31-17N 085-43W
Feb 20, 2019 - 12:56 PM EST / 2019.02.20 1756 UTC
Wind: from the SE (130 degrees) at 9 MPH (8 KT):0
Visibility: 10 mile(s):0
Sky conditions: overcast
Temperature: 63.1 F (17.3 C)
Dew Point: 58.8 F (14.9 C)
Relative Humidity: 85%
Pressure (altimeter): 30.03 in. Hg (1016 hPa)
Pressure tendency: 0.06 inches (1.9 hPa) lower than three hours ago
ob: KOZR 201756Z AUTO 13008KT 10SM OVC006 17/15 A3003 RMK AO2 SLP171 T01730149 10173 20104 57019
cycle: 18

Station Type Date Time Source
KOZR TAF 2019/02/20 16:33 UTC NOAA

TAF KOZR 2016/2119 11012KT 9999 OVC004 510106 QNH3002INS
BECMG 2017/2018 18010G15KT 9999 BKN007 OVC010 510165 QNH2994INS
TEMPO 2018/2021 BKN005
BECMG 2020/2021 19010G15KT 8000 -SHRA SCT008 OVC021 510232 QNH2994INS
BECMG 2102/2103 19009KT 8000 -SHRA OVC006 510165 QNH2998INS
BECMG 2108/2109 18006KT 3200 BR OVC005 QNH2995INS TX25/2021Z TN09/2012Z


Example: see airport list